Time;durP1;ratioP1;P1;durP2;ratioP2;P2;SDS_P1;SDS_P2;PMS_P1;PMS_P2;Temp;Humidity;BMP_temperature;BMP_pressure;BME280_temperature;BME280_humidity;BME280_pressure;Samples;Min_cycle;Max_cycle;Signal;HPM_P1;HPM_P2
2022/09/16 00:02:11;;;;;;;9.48;1.52;;;;;;;;;;6255544;22;20016;-83
2022/09/16 00:04:43;;;;;;;3.90;1.33;;;;;;;;;;6245089;22;20394;-84
2022/09/16 00:07:11;;;;;;;9.10;1.63;;;;;;;;;;6245220;22;20036;-84
2022/09/16 00:09:39;;;;;;;5.15;1.30;;;;;;;;;;6280478;22;20022;-84
2022/09/16 00:12:31;;;;;;;7.35;1.13;;;;;;;;;;6270380;22;20024;-83
2022/09/16 00:15:25;;;;;;;4.80;1.08;;;;;;;;;;6243928;22;20406;-83
2022/09/16 00:17:58;;;;;;;5.93;1.10;;;;;;;;;;6256663;22;20022;-83
2022/09/16 00:20:27;;;;;;;5.78;1.40;;;;;;;;;;6280322;22;20016;-83
2022/09/16 00:22:55;;;;;;;3.53;1.45;;;;;;;;;;6282609;22;20459;-84
2022/09/16 00:25:23;;;;;;;5.30;1.42;;;;;;;;;;6281767;22;20027;-83
2022/09/16 00:27:51;;;;;;;5.00;1.55;;;;;;;;;;6282188;22;20099;-83
2022/09/16 00:30:19;;;;;;;4.05;1.20;;;;;;;;;;6254098;22;20015;-83
2022/09/16 00:32:47;;;;;;;4.82;1.80;;;;;;;;;;6282594;22;20019;-84
2022/09/16 00:35:15;;;;;;;9.70;1.75;;;;;;;;;;6280900;22;20091;-83
2022/09/16 00:37:43;;;;;;;5.07;1.33;;;;;;;;;;6282127;22;20019;-83
2022/09/16 00:40:11;;;;;;;4.43;1.00;;;;;;;;;;6244383;22;20353;-84
2022/09/16 00:42:39;;;;;;;6.20;1.48;;;;;;;;;;6281969;22;20069;-83
2022/09/16 00:45:21;;;;;;;5.65;1.40;;;;;;;;;;6281005;22;20094;-83
2022/09/16 00:47:56;;;;;;;5.68;1.08;;;;;;;;;;6275536;22;20073;-82
2022/09/16 00:50:29;;;;;;;4.38;1.10;;;;;;;;;;6281759;22;20020;-83
2022/09/16 00:53:25;;;;;;;4.57;1.15;;;;;;;;;;6281755;22;20057;-82
2022/09/16 00:56:22;;;;;;;7.45;1.48;;;;;;;;;;6260610;22;20016;-83
2022/09/16 00:58:52;;;;;;;11.77;1.48;;;;;;;;;;6281719;22;20016;-83
2022/09/16 01:01:20;;;;;;;4.25;1.40;;;;;;;;;;6243566;22;20065;-83
2022/09/16 01:04:21;;;;;;;6.47;1.17;;;;;;;;;;6282055;22;20011;-83
2022/09/16 01:06:53;;;;;;;5.25;1.17;;;;;;;;;;6281024;22;20070;-83
2022/09/16 01:09:24;;;;;;;5.95;1.45;;;;;;;;;;6243077;22;20050;-82
2022/09/16 01:11:51;;;;;;;7.78;1.08;;;;;;;;;;6282586;22;20020;-83
2022/09/16 01:17:43;;;;;;;3.08;1.10;;;;;;;;;;6187149;23;20051;-83
2022/09/16 01:20:35;;;;;;;8.35;1.42;;;;;;;;;;6187025;23;20045;-84
2022/09/16 01:24:02;;;;;;;4.82;1.00;;;;;;;;;;6167425;23;20037;-83
2022/09/16 01:26:58;;;;;;;4.82;1.10;;;;;;;;;;6187929;23;20053;-83
2022/09/16 01:29:42;;;;;;;6.97;1.10;;;;;;;;;;6176830;23;20032;-84
2022/09/16 01:32:19;;;;;;;6.20;1.20;;;;;;;;;;6162943;23;20021;-83
2022/09/16 01:35:12;;;;;;;2.45;1.08;;;;;;;;;;6137684;23;20021;-83
2022/09/16 01:38:23;;;;;;;5.45;1.13;;;;;;;;;;6166402;23;20100;-83
2022/09/16 01:40:59;;;;;;;5.07;1.25;;;;;;;;;;6188013;23;20021;-83
2022/09/16 01:43:56;;;;;;;3.97;1.30;;;;;;;;;;6188748;23;20523;-83
2022/09/16 01:46:47;;;;;;;3.70;1.35;;;;;;;;;;6188663;23;20109;-83
2022/09/16 01:49:28;;;;;;;4.72;1.30;;;;;;;;;;6188728;23;20025;-83
2022/09/16 01:52:16;;;;;;;3.78;1.05;;;;;;;;;;6192510;22;20023;-84
2022/09/16 01:55:12;;;;;;;4.70;1.02;;;;;;;;;;6284066;22;20019;-83
2022/09/16 01:57:50;;;;;;;2.53;0.90;;;;;;;;;;6269345;22;20027;-84
2022/09/16 02:00:23;;;;;;;3.30;1.10;;;;;;;;;;6220986;22;20027;-83
2022/09/16 02:03:01;;;;;;;4.22;1.38;;;;;;;;;;6283045;22;20529;-83
2022/09/16 02:06:00;;;;;;;3.90;1.70;;;;;;;;;;6281289;22;20470;-83
2022/09/16 02:08:52;;;;;;;4.35;1.30;;;;;;;;;;6256796;22;20019;-84
2022/09/16 02:11:50;;;;;;;10.95;1.40;;;;;;;;;;6262312;22;20023;-84
2022/09/16 02:14:21;;;;;;;4.82;1.33;;;;;;;;;;6283405;22;20023;-84
2022/09/16 02:17:04;;;;;;;5.68;1.70;;;;;;;;;;6222067;22;20097;-84
2022/09/16 02:20:01;;;;;;;7.38;1.60;;;;;;;;;;6283125;22;20085;-83
2022/09/16 02:22:42;;;;;;;3.80;1.80;;;;;;;;;;6282430;22;20016;-83
2022/09/16 02:25:38;;;;;;;4.18;1.67;;;;;;;;;;6282551;22;20095;-84
2022/09/16 02:28:17;;;;;;;7.50;1.90;;;;;;;;;;6281862;22;20073;-83
2022/09/16 02:30:51;;;;;;;4.90;1.35;;;;;;;;;;6283540;22;20019;-83
2022/09/16 02:33:21;;;;;;;5.70;1.58;;;;;;;;;;6256399;22;20015;-83
2022/09/16 02:36:22;;;;;;;6.20;1.50;;;;;;;;;;6283669;22;20093;-84
2022/09/16 02:38:54;;;;;;;10.20;2.08;;;;;;;;;;6256324;22;20368;-83
2022/09/16 02:41:27;;;;;;;2.58;1.38;;;;;;;;;;6282452;22;20468;-83
2022/09/16 02:43:55;;;;;;;2.97;1.63;;;;;;;;;;6245621;22;20027;-82
2022/09/16 02:46:45;;;;;;;5.82;1.67;;;;;;;;;;6283299;22;20073;-84
2022/09/16 02:49:43;;;;;;;6.00;1.90;;;;;;;;;;6256949;22;20090;-83
2022/09/16 02:52:30;;;;;;;6.32;2.20;;;;;;;;;;6256454;22;20487;-82
2022/09/16 02:55:04;;;;;;;9.10;1.83;;;;;;;;;;6280727;22;20536;-83
2022/09/16 02:57:37;;;;;;;5.68;1.70;;;;;;;;;;6257418;22;20023;-83
2022/09/16 03:00:06;;;;;;;4.93;1.60;;;;;;;;;;6282653;22;20094;-83
2022/09/16 03:02:34;;;;;;;3.97;1.50;;;;;;;;;;6282844;22;20070;-83
2022/09/16 03:05:02;;;;;;;4.30;1.40;;;;;;;;;;6283279;22;20024;-83
2022/09/16 03:07:29;;;;;;;5.20;1.80;;;;;;;;;;6282975;22;20019;-84
2022/09/16 03:09:58;;;;;;;4.80;1.48;;;;;;;;;;6255074;22;20359;-83
2022/09/16 03:13:06;;;;;;;9.90;2.00;;;;;;;;;;6255629;22;20030;-83
2022/09/16 03:16:07;;;;;;;3.47;1.55;;;;;;;;;;6239914;22;20016;-83
2022/09/16 03:19:20;;;;;;;5.50;1.60;;;;;;;;;;6245286;22;20007;-83
2022/09/16 03:22:01;;;;;;;5.40;1.33;;;;;;;;;;6271863;22;20073;-83
2022/09/16 03:25:06;;;;;;;5.20;1.58;;;;;;;;;;6272414;22;20019;-83
2022/09/16 03:27:50;;;;;;;5.07;1.50;;;;;;;;;;6271402;22;20601;-83
2022/09/16 03:31:03;;;;;;;4.80;1.70;;;;;;;;;;6271954;22;20061;-83
2022/09/16 03:34:10;;;;;;;9.30;1.45;;;;;;;;;;6251081;22;20083;-83
2022/09/16 03:36:50;;;;;;;7.38;1.35;;;;;;;;;;6246875;22;20026;-83
2022/09/16 03:39:18;;;;;;;5.45;1.23;;;;;;;;;;6282627;22;20026;-84
2022/09/16 03:42:11;;;;;;;9.38;1.50;;;;;;;;;;6281851;22;20011;-83
2022/09/16 03:45:03;;;;;;;4.32;1.50;;;;;;;;;;6282094;22;20022;-83
2022/09/16 03:47:31;;;;;;;5.60;1.30;;;;;;;;;;6282088;22;20080;-84
2022/09/16 03:49:59;;;;;;;5.70;1.65;;;;;;;;;;6280664;22;20019;-83
2022/09/16 03:52:27;;;;;;;5.03;1.55;;;;;;;;;;6282659;22;20443;-84
2022/09/16 03:54:55;;;;;;;4.05;1.52;;;;;;;;;;6269728;22;20077;-83
2022/09/16 03:57:23;;;;;;;5.85;1.60;;;;;;;;;;6255974;22;20022;-83
2022/09/16 03:59:55;;;;;;;4.43;1.45;;;;;;;;;;6256509;22;20439;-83
2022/09/16 04:02:47;;;;;;;6.70;1.85;;;;;;;;;;6242795;22;20023;-83
2022/09/16 04:05:19;;;;;;;4.80;1.60;;;;;;;;;;6281962;22;20500;-83
2022/09/16 04:07:51;;;;;;;7.80;1.60;;;;;;;;;;6282493;22;20015;-83
2022/09/16 04:10:19;;;;;;;5.10;1.63;;;;;;;;;;6282238;22;20015;-82
2022/09/16 04:13:16;;;;;;;7.03;1.60;;;;;;;;;;6224464;22;20031;-83
2022/09/16 04:16:08;;;;;;;6.53;2.10;;;;;;;;;;6281622;22;20015;-82
2022/09/16 04:18:35;;;;;;;8.85;1.70;;;;;;;;;;6245393;22;20019;-83
2022/09/16 04:21:03;;;;;;;4.78;1.63;;;;;;;;;;6279602;22;20069;-83
2022/09/16 04:23:31;;;;;;;4.90;1.50;;;;;;;;;;6244697;22;20379;-84
2022/09/16 04:26:03;;;;;;;6.95;1.52;;;;;;;;;;6281824;22;20111;-82
2022/09/16 04:28:32;;;;;;;6.15;1.50;;;;;;;;;;6270628;22;20054;-84
2022/09/16 04:31:04;;;;;;;8.10;1.70;;;;;;;;;;6279626;22;20810;-82
2022/09/16 04:33:33;;;;;;;5.93;1.52;;;;;;;;;;6281737;22;20023;-83
2022/09/16 04:36:18;;;;;;;4.95;1.48;;;;;;;;;;6282138;22;20035;-84
2022/09/16 04:38:51;;;;;;;6.00;1.30;;;;;;;;;;6280359;22;20058;-83
2022/09/16 04:41:21;;;;;;;5.47;2.30;;;;;;;;;;6281520;22;20015;-83
2022/09/16 04:43:51;;;;;;;4.90;1.30;;;;;;;;;;6280973;22;20015;-83
2022/09/16 04:46:19;;;;;;;3.85;1.55;;;;;;;;;;6242642;22;20034;-83
2022/09/16 04:48:49;;;;;;;4.10;1.50;;;;;;;;;;6244837;22;20020;-83
2022/09/16 04:51:41;;;;;;;3.33;1.30;;;;;;;;;;6244688;22;20058;-83
2022/09/16 04:54:10;;;;;;;6.97;2.92;;;;;;;;;;6280870;22;20412;-83
2022/09/16 04:56:43;;;;;;;5.07;1.63;;;;;;;;;;6279798;22;20848;-83
2022/09/16 04:59:11;;;;;;;5.57;1.52;;;;;;;;;;6282038;22;20054;-83
2022/09/16 05:01:39;;;;;;;3.75;1.70;;;;;;;;;;6254522;22;20023;-82
2022/09/16 05:04:09;;;;;;;5.30;1.80;;;;;;;;;;6278993;22;20113;-83
2022/09/16 05:06:40;;;;;;;3.50;1.50;;;;;;;;;;6242397;22;20110;-83
2022/09/16 05:09:34;;;;;;;4.97;1.98;;;;;;;;;;6218500;22;20019;-83
2022/09/16 05:12:07;;;;;;;4.60;1.40;;;;;;;;;;6278740;22;20023;-83
2022/09/16 05:14:59;;;;;;;4.80;1.50;;;;;;;;;;6223285;22;20444;-83
2022/09/16 05:17:30;;;;;;;8.15;1.50;;;;;;;;;;6277879;22;20015;-83
2022/09/16 05:20:23;;;;;;;5.03;1.50;;;;;;;;;;6280431;22;20816;-82
2022/09/16 05:22:51;;;;;;;3.13;1.35;;;;;;;;;;6279950;22;20030;-83
2022/09/16 05:25:19;;;;;;;5.50;1.70;;;;;;;;;;6279048;22;20019;-82
2022/09/16 05:27:47;;;;;;;3.60;1.45;;;;;;;;;;6253200;22;20011;-83
2022/09/16 05:30:16;;;;;;;4.15;1.30;;;;;;;;;;6252831;22;20107;-85
2022/09/16 05:33:09;;;;;;;5.40;1.33;;;;;;;;;;6257325;22;20023;-84
2022/09/16 05:35:51;;;;;;;4.65;1.38;;;;;;;;;;6258359;22;20019;-81
2022/09/16 05:38:43;;;;;;;3.85;1.33;;;;;;;;;;6281948;22;20983;-82
2022/09/16 05:41:32;;;;;;;5.70;1.70;;;;;;;;;;6233783;22;20019;-82
2022/09/16 05:44:05;;;;;;;10.90;2.13;;;;;;;;;;6257124;22;20679;-82
2022/09/16 05:46:34;;;;;;;5.78;1.90;;;;;;;;;;6251981;22;20091;-82
2022/09/16 05:49:25;;;;;;;7.28;1.70;;;;;;;;;;6255465;22;20007;-81
2022/09/16 05:51:53;;;;;;;8.57;2.08;;;;;;;;;;6252077;22;20023;-82
2022/09/16 05:54:27;;;;;;;4.72;1.90;;;;;;;;;;6285772;22;20456;-83
2022/09/16 05:57:09;;;;;;;6.82;1.63;;;;;;;;;;6260072;22;20019;-83
2022/09/16 05:59:39;;;;;;;6.13;1.65;;;;;;;;;;6257880;22;20015;-84
2022/09/16 06:02:37;;;;;;;7.30;1.75;;;;;;;;;;6282425;22;20091;-84
2022/09/16 06:05:11;;;;;;;4.57;1.40;;;;;;;;;;6282255;22;20030;-85
2022/09/16 06:07:45;;;;;;;8.10;1.75;;;;;;;;;;6282501;22;20015;-85
2022/09/16 06:10:54;;;;;;;8.60;1.23;;;;;;;;;;6216913;22;20455;-86
2022/09/16 06:13:41;;;;;;;5.20;1.25;;;;;;;;;;6242999;22;20544;-84
2022/09/16 06:16:53;;;;;;;6.25;1.15;;;;;;;;;;6280013;22;20011;-84
2022/09/16 06:19:35;;;;;;;5.63;1.40;;;;;;;;;;6238093;22;20021;-82
2022/09/16 06:22:17;;;;;;;6.15;1.17;;;;;;;;;;6250810;22;20019;-83
2022/09/16 06:24:57;;;;;;;6.78;1.40;;;;;;;;;;6285560;22;20018;-82
2022/09/16 06:27:43;;;;;;;10.50;1.33;;;;;;;;;;6282472;22;20102;-84
2022/09/16 06:30:25;;;;;;;6.57;1.20;;;;;;;;;;6258412;22;20098;-84
2022/09/16 06:33:08;;;;;;;7.70;1.95;;;;;;;;;;6260605;22;20102;-82
2022/09/16 06:35:47;;;;;;;4.70;1.33;;;;;;;;;;6261430;22;20016;-82
2022/09/16 06:38:24;;;;;;;6.25;1.63;;;;;;;;;;6282611;22;20030;-84
2022/09/16 06:40:51;;;;;;;5.75;1.30;;;;;;;;;;6282322;22;20070;-83
2022/09/16 06:43:19;;;;;;;10.48;1.60;;;;;;;;;;6279749;22;20015;-83
2022/09/16 06:45:56;;;;;;;12.50;1.40;;;;;;;;;;6280237;22;20019;-84
2022/09/16 06:48:23;;;;;;;3.70;1.30;;;;;;;;;;6281270;22;20095;-84
2022/09/16 06:51:01;;;;;;;6.35;1.50;;;;;;;;;;6255345;22;20026;-84
2022/09/16 06:53:33;;;;;;;8.70;1.50;;;;;;;;;;6281766;22;20024;-84
2022/09/16 06:56:06;;;;;;;7.90;1.38;;;;;;;;;;6281017;22;20312;-83
2022/09/16 06:58:36;;;;;;;4.05;1.20;;;;;;;;;;6281763;22;20474;-83
2022/09/16 07:01:08;;;;;;;8.05;1.42;;;;;;;;;;6255066;22;20024;-84
2022/09/16 07:03:40;;;;;;;9.85;1.85;;;;;;;;;;6283046;22;20087;-83
2022/09/16 07:06:14;;;;;;;8.02;1.02;;;;;;;;;;6283467;22;20026;-83
2022/09/16 07:08:42;;;;;;;9.95;1.40;;;;;;;;;;6283084;22;20094;-83
2022/09/16 07:11:17;;;;;;;7.05;1.42;;;;;;;;;;6271227;22;20015;-83
2022/09/16 07:13:47;;;;;;;6.72;1.25;;;;;;;;;;6282970;22;20043;-84
2022/09/16 07:16:25;;;;;;;5.60;1.13;;;;;;;;;;6281947;22;20483;-84
2022/09/16 07:18:55;;;;;;;11.88;1.63;;;;;;;;;;6283616;22;20027;-84
2022/09/16 07:21:29;;;;;;;6.93;1.23;;;;;;;;;;6282933;22;20020;-83
2022/09/16 07:23:59;;;;;;;10.85;1.50;;;;;;;;;;6221248;22;20489;-84
2022/09/16 07:26:33;;;;;;;5.18;0.98;;;;;;;;;;6255384;22;20015;-83
2022/09/16 07:29:03;;;;;;;9.23;1.35;;;;;;;;;;6283710;22;20039;-83
2022/09/16 07:31:34;;;;;;;6.07;1.10;;;;;;;;;;6281216;22;20127;-84
2022/09/16 07:34:03;;;;;;;8.23;1.27;;;;;;;;;;6283122;22;20023;-83
2022/09/16 07:36:43;;;;;;;3.15;0.90;;;;;;;;;;6256347;22;20020;-84
2022/09/16 07:39:13;;;;;;;6.10;1.20;;;;;;;;;;6256501;22;20020;-83
2022/09/16 07:41:47;;;;;;;4.00;1.17;;;;;;;;;;6282247;22;20030;-83
2022/09/16 07:44:17;;;;;;;8.00;1.17;;;;;;;;;;6282943;22;20026;-84
2022/09/16 07:46:45;;;;;;;5.60;1.00;;;;;;;;;;6279529;22;20016;-84
2022/09/16 07:49:14;;;;;;;7.30;1.20;;;;;;;;;;6282653;22;20030;-83
2022/09/16 07:51:42;;;;;;;7.18;1.00;;;;;;;;;;6281869;22;20099;-84
2022/09/16 07:54:12;;;;;;;7.43;1.75;;;;;;;;;;6281377;22;20571;-84
2022/09/16 07:56:40;;;;;;;8.40;1.33;;;;;;;;;;6281701;22;20012;-84
2022/09/16 07:59:38;;;;;;;2.65;1.10;;;;;;;;;;6282473;22;20355;-84
2022/09/16 08:02:16;;;;;;;6.00;1.25;;;;;;;;;;6253607;22;20477;-84
2022/09/16 08:04:43;;;;;;;4.85;0.75;;;;;;;;;;6256077;22;20024;-84
2022/09/16 08:07:11;;;;;;;9.77;1.30;;;;;;;;;;6282211;22;20073;-84
2022/09/16 08:09:39;;;;;;;3.63;0.80;;;;;;;;;;6282131;22;20019;-84
2022/09/16 08:12:19;;;;;;;7.40;1.45;;;;;;;;;;6282398;22;20015;-83
2022/09/16 08:14:47;;;;;;;7.10;0.93;;;;;;;;;;6282338;22;20019;-84
2022/09/16 08:17:15;;;;;;;6.93;1.48;;;;;;;;;;6249758;22;20498;-83
2022/09/16 08:20:07;;;;;;;7.10;1.40;;;;;;;;;;6282755;22;20007;-84
2022/09/16 08:22:35;;;;;;;5.57;0.75;;;;;;;;;;6244825;22;20020;-84
2022/09/16 08:25:07;;;;;;;4.72;1.02;;;;;;;;;;6281954;22;20062;-84
2022/09/16 08:27:39;;;;;;;7.05;1.55;;;;;;;;;;6281821;22;20019;-84
2022/09/16 08:30:08;;;;;;;9.15;1.65;;;;;;;;;;6280963;22;20015;-83
2022/09/16 08:32:35;;;;;;;7.68;1.05;;;;;;;;;;6280498;22;20043;-84
2022/09/16 08:35:03;;;;;;;7.93;1.30;;;;;;;;;;6269830;22;20499;-84
2022/09/16 08:37:35;;;;;;;6.57;1.27;;;;;;;;;;6279613;22;20012;-84
2022/09/16 08:40:14;;;;;;;5.07;0.93;;;;;;;;;;6220991;22;20090;-84
2022/09/16 08:42:44;;;;;;;8.52;1.27;;;;;;;;;;6282211;22;20548;-84
2022/09/16 08:45:42;;;;;;;3.63;0.90;;;;;;;;;;6254881;22;20015;-84
2022/09/16 08:48:39;;;;;;;7.03;1.05;;;;;;;;;;6252531;22;20440;-84
2022/09/16 08:51:13;;;;;;;8.13;1.30;;;;;;;;;;6281855;22;20022;-84
2022/09/16 08:53:48;;;;;;;8.40;1.08;;;;;;;;;;6280036;22;20356;-83
2022/09/16 08:56:24;;;;;;;5.97;0.90;;;;;;;;;;6253600;22;20020;-84
2022/09/16 08:58:54;;;;;;;8.57;1.00;;;;;;;;;;6280316;22;20026;-84
2022/09/16 09:01:40;;;;;;;5.88;0.88;;;;;;;;;;6278935;22;20022;-84
2022/09/16 09:04:11;;;;;;;6.50;1.02;;;;;;;;;;6281178;22;20091;-84
2022/09/16 09:06:42;;;;;;;8.43;1.05;;;;;;;;;;6280866;22;20016;-84
2022/09/16 09:09:59;;;;;;;7.97;1.30;;;;;;;;;;6281293;22;20046;-84
2022/09/16 09:12:37;;;;;;;7.65;1.30;;;;;;;;;;6253725;22;20523;-84
2022/09/16 09:15:38;;;;;;;9.05;1.00;;;;;;;;;;6255342;22;20026;-84
2022/09/16 09:18:17;;;;;;;6.03;0.85;;;;;;;;;;6280519;22;20027;-84
2022/09/16 09:21:35;;;;;;;6.55;1.35;;;;;;;;;;6262069;22;20007;-84
2022/09/16 09:24:35;;;;;;;7.15;1.02;;;;;;;;;;6282597;22;20312;-84
2022/09/16 09:27:45;;;;;;;8.52;1.42;;;;;;;;;;6254951;22;20014;-84
2022/09/16 09:30:21;;;;;;;10.55;1.23;;;;;;;;;;6153466;23;20477;-83
2022/09/16 09:33:10;;;;;;;6.15;1.00;;;;;;;;;;6186187;23;20021;-83
2022/09/16 09:36:31;;;;;;;5.15;0.90;;;;;;;;;;6186787;23;20108;-84
2022/09/16 09:39:05;;;;;;;12.88;1.52;;;;;;;;;;6186040;23;20017;-84
2022/09/16 09:41:40;;;;;;;8.05;1.10;;;;;;;;;;6186387;23;20029;-84
2022/09/16 09:44:38;;;;;;;7.10;0.93;;;;;;;;;;6161328;23;20117;-84
2022/09/16 09:47:28;;;;;;;7.53;1.27;;;;;;;;;;6190786;23;20378;-84
2022/09/16 09:50:10;;;;;;;4.75;1.15;;;;;;;;;;6167503;23;20030;-84
2022/09/16 09:52:51;;;;;;;10.18;1.75;;;;;;;;;;6186770;23;20064;-84
2022/09/16 09:55:26;;;;;;;4.85;0.95;;;;;;;;;;6172823;23;20021;-84
2022/09/16 09:58:14;;;;;;;7.90;0.95;;;;;;;;;;6199537;23;20021;-84
2022/09/16 10:00:41;;;;;;;4.80;0.70;;;;;;;;;;6200063;23;20029;-84
2022/09/16 10:03:12;;;;;;;3.67;0.82;;;;;;;;;;6198459;23;20021;-84
2022/09/16 10:05:43;;;;;;;6.15;1.02;;;;;;;;;;6200770;23;20020;-84
2022/09/16 10:08:19;;;;;;;7.50;1.20;;;;;;;;;;6277872;22;20083;-84
2022/09/16 10:11:23;;;;;;;5.30;1.30;;;;;;;;;;6294019;22;20042;-84
2022/09/16 10:13:57;;;;;;;9.63;1.35;;;;;;;;;;6257509;22;20343;-84
2022/09/16 10:16:51;;;;;;;5.57;1.00;;;;;;;;;;6290137;22;20003;-84
2022/09/16 10:19:25;;;;;;;6.00;0.90;;;;;;;;;;6293265;22;20089;-84
2022/09/16 10:22:06;;;;;;;5.60;0.80;;;;;;;;;;6293494;22;20015;-84
2022/09/16 10:24:38;;;;;;;8.27;1.35;;;;;;;;;;6291958;22;20015;-84
2022/09/16 10:27:21;;;;;;;4.85;0.88;;;;;;;;;;6292260;22;20469;-85
2022/09/16 10:30:16;;;;;;;5.40;0.95;;;;;;;;;;6273072;22;20004;-85
2022/09/16 10:33:00;;;;;;;9.18;1.15;;;;;;;;;;6292301;22;20023;-84
2022/09/16 10:35:59;;;;;;;5.53;1.33;;;;;;;;;;6293156;22;20019;-84
2022/09/16 10:38:57;;;;;;;4.88;0.95;;;;;;;;;;6293769;22;20011;-84
2022/09/16 10:41:40;;;;;;;4.63;1.65;;;;;;;;;;6289875;22;20433;-84
2022/09/16 10:44:33;;;;;;;5.07;0.80;;;;;;;;;;6291820;22;20026;-85
2022/09/16 10:47:09;;;;;;;7.05;1.15;;;;;;;;;;6253353;22;20042;-84
2022/09/16 10:49:43;;;;;;;5.45;1.17;;;;;;;;;;6264024;22;20343;-84
2022/09/16 10:52:21;;;;;;;4.28;0.75;;;;;;;;;;6289447;22;20452;-84
2022/09/16 10:54:49;;;;;;;7.82;1.20;;;;;;;;;;6289983;22;20046;-84
2022/09/16 10:57:25;;;;;;;11.30;1.90;;;;;;;;;;6288072;22;20011;-84
2022/09/16 11:00:07;;;;;;;6.65;1.20;;;;;;;;;;6289331;22;20012;-85
2022/09/16 11:02:51;;;;;;;4.45;0.88;;;;;;;;;;6289747;22;20034;-85
2022/09/16 11:05:32;;;;;;;5.10;0.90;;;;;;;;;;6292612;22;20046;-84
2022/09/16 11:08:15;;;;;;;9.57;1.35;;;;;;;;;;6292410;22;20031;-85
2022/09/16 11:10:47;;;;;;;6.78;0.70;;;;;;;;;;6261820;22;20042;-84
2022/09/16 11:13:41;;;;;;;4.05;0.70;;;;;;;;;;6286821;22;20022;-84
2022/09/16 11:16:19;;;;;;;5.88;0.88;;;;;;;;;;6290121;22;20019;-84
2022/09/16 11:19:06;;;;;;;9.23;0.90;;;;;;;;;;6290178;22;20012;-85
2022/09/16 11:22:16;;;;;;;6.78;1.20;;;;;;;;;;6264717;22;20014;-85
2022/09/16 11:25:27;;;;;;;4.97;1.45;;;;;;;;;;6291815;22;20086;-85
2022/09/16 11:28:26;;;;;;;11.25;1.02;;;;;;;;;;6264187;22;20007;-85
2022/09/16 11:31:23;;;;;;;6.95;1.23;;;;;;;;;;6262977;22;20015;-84
2022/09/16 11:34:22;;;;;;;2.28;0.98;;;;;;;;;;6288377;22;20023;-84
2022/09/16 11:37:05;;;;;;;4.05;0.82;;;;;;;;;;6291241;22;20019;-83
2022/09/16 11:39:56;;;;;;;6.78;1.25;;;;;;;;;;6228316;22;20038;-84
2022/09/16 11:42:33;;;;;;;6.45;1.17;;;;;;;;;;6257423;23;20020;-84
2022/09/16 11:45:19;;;;;;;6.10;1.10;;;;;;;;;;6255734;23;20024;-84
2022/09/16 11:48:29;;;;;;;2.80;0.90;;;;;;;;;;6252780;23;20484;-84
2022/09/16 11:51:22;;;;;;;6.97;1.90;;;;;;;;;;6224215;23;20024;-84
2022/09/16 11:54:00;;;;;;;5.88;1.55;;;;;;;;;;6226265;23;20028;-85
2022/09/16 11:57:07;;;;;;;7.03;1.50;;;;;;;;;;6228355;23;20031;-84
2022/09/16 12:00:04;;;;;;;11.27;2.10;;;;;;;;;;6085228;23;20026;-83
2022/09/16 12:02:58;;;;;;;9.00;2.33;;;;;;;;;;6101479;23;20113;-84
2022/09/16 12:05:52;;;;;;;6.45;1.80;;;;;;;;;;6101966;23;20443;-84
2022/09/16 12:08:37;;;;;;;8.68;1.85;;;;;;;;;;6102171;23;20045;-84
2022/09/16 12:11:18;;;;;;;7.93;2.40;;;;;;;;;;6101524;23;20026;-84
2022/09/16 12:14:36;;;;;;;9.75;1.52;;;;;;;;;;6083342;23;20026;-84
2022/09/16 12:17:21;;;;;;;5.07;1.00;;;;;;;;;;6104409;23;20041;-84
2022/09/16 12:20:33;;;;;;;4.90;0.80;;;;;;;;;;6108549;23;20018;-84
2022/09/16 12:23:23;;;;;;;12.07;1.70;;;;;;;;;;6109936;23;20527;-84
2022/09/16 12:25:59;;;;;;;6.88;1.55;;;;;;;;;;6131132;23;20073;-84
2022/09/16 12:29:04;;;;;;;9.55;1.27;;;;;;;;;;6132292;23;20097;-84
2022/09/16 12:31:46;;;;;;;6.45;1.00;;;;;;;;;;6097121;23;20061;-83
2022/09/16 12:34:27;;;;;;;6.80;1.10;;;;;;;;;;6133018;23;20073;-83
2022/09/16 12:37:11;;;;;;;5.68;1.10;;;;;;;;;;6263702;22;20027;-84
2022/09/16 12:39:39;;;;;;;4.53;1.00;;;;;;;;;;6261271;22;20039;-84
2022/09/16 12:42:25;;;;;;;8.88;1.20;;;;;;;;;;6257296;22;20027;-84
2022/09/16 12:45:12;;;;;;;3.75;0.88;;;;;;;;;;6223152;22;20027;-83
2022/09/16 12:47:39;;;;;;;3.45;1.02;;;;;;;;;;6282420;22;20012;-84
2022/09/16 12:50:51;;;;;;;6.82;0.98;;;;;;;;;;6258193;22;20020;-83
2022/09/16 12:53:56;;;;;;;6.28;1.25;;;;;;;;;;6279907;22;20709;-84
2022/09/16 12:57:14;;;;;;;8.48;2.08;;;;;;;;;;6245764;22;20015;-83
2022/09/16 13:00:16;;;;;;;7.50;1.45;;;;;;;;;;6285533;22;20022;-84
2022/09/16 13:02:57;;;;;;;4.75;1.42;;;;;;;;;;6285483;22;20019;-83
2022/09/16 13:05:53;;;;;;;5.22;1.45;;;;;;;;;;6287406;22;20019;-84
2022/09/16 13:08:26;;;;;;;2.95;1.00;;;;;;;;;;6285089;22;20091;-84
2022/09/16 13:11:04;;;;;;;4.70;0.90;;;;;;;;;;6286879;22;20023;-83
2022/09/16 13:13:56;;;;;;;7.78;1.30;;;;;;;;;;6259462;22;20019;-84
2022/09/16 13:16:35;;;;;;;6.55;0.90;;;;;;;;;;6258613;22;20049;-84
2022/09/16 13:19:06;;;;;;;4.90;0.68;;;;;;;;;;6260246;22;20343;-84
2022/09/16 13:22:22;;;;;;;5.75;1.02;;;;;;;;;;6267938;22;20008;-84
2022/09/16 13:25:19;;;;;;;4.45;0.88;;;;;;;;;;6287936;22;20459;-83
2022/09/16 13:28:20;;;;;;;5.35;1.15;;;;;;;;;;6290570;22;20034;-84
2022/09/16 13:30:53;;;;;;;8.00;1.85;;;;;;;;;;6288677;22;20020;-84
2022/09/16 13:33:24;;;;;;;3.15;0.50;;;;;;;;;;6262435;22;20518;-83
2022/09/16 13:36:12;;;;;;;4.35;0.60;;;;;;;;;;6238468;22;20076;-83
2022/09/16 13:38:50;;;;;;;6.95;2.13;;;;;;;;;;6263441;22;20446;-83
2022/09/16 13:41:46;;;;;;;6.85;0.90;;;;;;;;;;6269163;22;20004;-84
2022/09/16 13:44:36;;;;;;;4.50;0.80;;;;;;;;;;6289108;22;20091;-84
2022/09/16 13:47:09;;;;;;;3.05;0.70;;;;;;;;;;6274888;22;20019;-83
2022/09/16 13:50:13;;;;;;;7.68;0.90;;;;;;;;;;6289613;22;20080;-83
2022/09/16 13:52:42;;;;;;;3.45;0.70;;;;;;;;;;6286305;22;20589;-83
2022/09/16 13:55:25;;;;;;;6.90;0.70;;;;;;;;;;6287368;22;20546;-83
2022/09/16 13:58:53;;;;;;;3.30;0.73;;;;;;;;;;6288444;22;20011;-84
2022/09/16 14:01:38;;;;;;;3.10;1.13;;;;;;;;;;6286604;22;20407;-83
2022/09/16 14:05:09;;;;;;;4.40;0.90;;;;;;;;;;6289107;22;20012;-83
2022/09/16 14:07:50;;;;;;;1.60;0.45;;;;;;;;;;6288168;22;20008;-83
2022/09/16 14:10:29;;;;;;;6.45;0.93;;;;;;;;;;6289589;22;20020;-83
2022/09/16 14:13:20;;;;;;;4.18;0.82;;;;;;;;;;6249722;22;20022;-83
2022/09/16 14:15:55;;;;;;;3.58;1.08;;;;;;;;;;6286338;22;20019;-82
2022/09/16 14:18:27;;;;;;;2.92;0.85;;;;;;;;;;6287748;22;20075;-83
2022/09/16 14:21:15;;;;;;;3.67;0.77;;;;;;;;;;6288179;22;20047;-83
2022/09/16 14:23:43;;;;;;;4.68;0.80;;;;;;;;;;6291104;22;20020;-84
2022/09/16 14:26:13;;;;;;;3.30;0.68;;;;;;;;;;6291327;22;20047;-83
2022/09/16 14:28:41;;;;;;;9.13;1.20;;;;;;;;;;6253780;22;20026;-83
2022/09/16 14:31:21;;;;;;;4.88;1.08;;;;;;;;;;6290668;22;20016;-83
2022/09/16 14:34:07;;;;;;;4.55;1.15;;;;;;;;;;6253609;22;20043;-83
2022/09/16 14:36:39;;;;;;;2.05;0.50;;;;;;;;;;6266082;22;20023;-83
2022/09/16 14:39:16;;;;;;;5.40;0.60;;;;;;;;;;6289074;22;20015;-83
2022/09/16 14:42:09;;;;;;;5.57;0.90;;;;;;;;;;6261912;22;20012;-83
2022/09/16 14:44:50;;;;;;;6.35;0.98;;;;;;;;;;6265578;22;20046;-83
2022/09/16 14:47:29;;;;;;;6.68;1.08;;;;;;;;;;6293260;22;20070;-83
2022/09/16 14:50:23;;;;;;;6.57;0.93;;;;;;;;;;6292634;22;20011;-83
2022/09/16 14:52:54;;;;;;;9.18;1.23;;;;;;;;;;6267974;22;20026;-83
2022/09/16 14:55:30;;;;;;;5.15;1.13;;;;;;;;;;6293642;22;20034;-83
2022/09/16 14:58:03;;;;;;;3.83;0.93;;;;;;;;;;6293009;22;20375;-83
2022/09/16 15:00:43;;;;;;;6.07;1.30;;;;;;;;;;6293782;22;20019;-83
2022/09/16 15:03:23;;;;;;;7.55;1.27;;;;;;;;;;6293196;22;20042;-83
2022/09/16 15:06:05;;;;;;;5.57;0.93;;;;;;;;;;6268062;22;20054;-83
2022/09/16 15:08:48;;;;;;;12.98;1.20;;;;;;;;;;6291639;22;20019;-83
2022/09/16 15:11:26;;;;;;;6.05;0.90;;;;;;;;;;6291937;22;20050;-83
2022/09/16 15:14:14;;;;;;;9.93;1.30;;;;;;;;;;6266161;22;20024;-83
2022/09/16 15:16:45;;;;;;;4.43;1.02;;;;;;;;;;6289799;22;20019;-83
2022/09/16 15:19:24;;;;;;;6.60;1.42;;;;;;;;;;6231494;22;20012;-83
2022/09/16 15:21:52;;;;;;;8.23;1.23;;;;;;;;;;6290960;22;20027;-83
2022/09/16 15:24:46;;;;;;;5.95;0.88;;;;;;;;;;6291868;22;20007;-83
2022/09/16 15:27:23;;;;;;;3.75;0.80;;;;;;;;;;6292500;22;20015;-83
2022/09/16 15:29:56;;;;;;;5.60;1.10;;;;;;;;;;6268437;22;20025;-83
2022/09/16 15:32:27;;;;;;;4.55;1.02;;;;;;;;;;6256530;22;20039;-83
2022/09/16 15:35:31;;;;;;;6.03;1.20;;;;;;;;;;6293793;22;20022;-83
2022/09/16 15:38:13;;;;;;;2.47;0.73;;;;;;;;;;6290690;22;20400;-83
2022/09/16 15:40:46;;;;;;;3.30;0.82;;;;;;;;;;6290507;22;20039;-83
2022/09/16 15:43:23;;;;;;;3.13;0.95;;;;;;;;;;6266760;22;20031;-83
2022/09/16 15:46:03;;;;;;;4.25;0.77;;;;;;;;;;6290440;22;20042;-83
2022/09/16 15:48:34;;;;;;;5.28;0.95;;;;;;;;;;6277767;22;20016;-83
2022/09/16 15:51:38;;;;;;;2.38;0.70;;;;;;;;;;6290773;22;20015;-83
2022/09/16 15:54:17;;;;;;;8.85;1.50;;;;;;;;;;6291351;22;20103;-83
2022/09/16 15:57:00;;;;;;;8.02;1.15;;;;;;;;;;6265152;22;20012;-83
2022/09/16 16:00:12;;;;;;;7.45;1.65;;;;;;;;;;6235834;22;20013;-83
2022/09/16 16:02:52;;;;;;;5.22;1.70;;;;;;;;;;6289897;22;20038;-83
2022/09/16 16:05:22;;;;;;;5.88;2.30;;;;;;;;;;6268551;22;20030;-84
2022/09/16 16:08:36;;;;;;;3.78;1.95;;;;;;;;;;6263011;22;20012;-83
2022/09/16 16:11:29;;;;;;;5.30;2.22;;;;;;;;;;6290238;22;20065;-84
2022/09/16 16:13:57;;;;;;;5.97;2.50;;;;;;;;;;6287524;22;20042;-83